createdAt,value
2018-04-27T00:01:09.126Z,64.30
2018-04-27T00:03:36.696Z,64.10
2018-04-27T00:06:04.320Z,64.10
2018-04-27T00:08:32.683Z,64.60
2018-04-27T00:11:00.992Z,64.40
2018-04-27T00:13:28.554Z,64.50
2018-04-27T00:15:56.140Z,64.50
2018-04-27T00:18:23.728Z,64.40
2018-04-27T00:20:52.086Z,64.20
2018-04-27T00:23:19.665Z,64.10
2018-04-27T00:25:48.734Z,64.50
2018-04-27T00:28:16.325Z,64.40
2018-04-27T00:30:43.930Z,64.60
2018-04-27T00:33:11.507Z,64.60
2018-04-27T00:35:39.093Z,64.70
2018-04-27T00:38:06.687Z,64.70
2018-04-27T00:40:35.012Z,64.90
2018-04-27T00:43:02.616Z,64.90
2018-04-27T00:45:30.974Z,65.00
2018-04-27T00:47:58.522Z,64.90
2018-04-27T00:50:26.112Z,64.90
2018-04-27T00:53:05.470Z,65.20
2018-04-27T00:55:33.807Z,65.50
2018-04-27T00:58:01.369Z,65.50
2018-04-27T01:00:28.923Z,65.50
2018-04-27T01:02:56.492Z,65.50
2018-04-27T01:05:25.564Z,65.60
2018-04-27T01:07:53.165Z,65.60
2018-04-27T01:10:21.491Z,65.50
2018-04-27T01:12:49.080Z,65.50
2018-04-27T01:15:16.815Z,65.40
2018-04-27T01:17:44.468Z,65.30
2018-04-27T01:20:12.085Z,65.50
2018-04-27T01:22:39.716Z,66.20
2018-04-27T01:25:07.321Z,65.70
2018-04-27T01:27:35.675Z,65.60
2018-04-27T01:30:03.292Z,65.50
2018-04-27T01:32:30.895Z,65.70
2018-04-27T01:34:58.511Z,65.50
2018-04-27T01:37:26.149Z,65.70
2018-04-27T01:39:54.539Z,65.70
2018-04-27T01:42:22.148Z,65.70
2018-04-27T01:44:49.726Z,65.80
2018-04-27T01:47:18.884Z,65.70
2018-04-27T01:49:46.466Z,65.60
2018-04-27T01:52:14.091Z,65.80
2018-04-27T01:54:41.978Z,65.80
2018-04-27T01:57:09.631Z,66.20
2018-04-27T01:59:37.227Z,66.30
2018-04-27T02:02:05.580Z,66.50
2018-04-27T02:04:33.174Z,66.50
2018-04-27T02:07:01.545Z,66.60
2018-04-27T02:09:29.212Z,66.60
2018-04-27T02:11:56.815Z,67.40
2018-04-27T02:14:24.425Z,66.80
2018-04-27T02:16:51.985Z,67.00
2018-04-27T02:19:19.599Z,67.20
2018-04-27T02:21:47.230Z,67.30
2018-04-27T02:24:15.627Z,67.70
2018-04-27T02:26:43.237Z,67.60
2018-04-27T02:29:10.838Z,67.40
2018-04-27T02:31:38.545Z,67.50
2018-04-27T02:34:06.163Z,67.50
2018-04-27T02:36:33.805Z,67.40
2018-04-27T02:39:01.416Z,67.50
2018-04-27T02:41:29.042Z,67.60
2018-04-27T02:43:56.671Z,67.70
2018-04-27T02:46:24.285Z,67.50
2018-04-27T02:48:51.874Z,67.90
2018-04-27T02:51:19.500Z,67.70
2018-04-27T02:53:47.077Z,67.80
2018-04-27T02:56:14.707Z,67.90
2018-04-27T02:58:42.317Z,68.10
2018-04-27T03:01:09.897Z,68.50
2018-04-27T03:03:37.507Z,68.30
2018-04-27T03:06:05.095Z,68.50
2018-04-27T03:08:32.753Z,68.60
2018-04-27T03:11:00.363Z,69.10
2018-04-27T03:13:28.731Z,69.40
2018-04-27T03:15:56.381Z,69.30
2018-04-27T03:18:24.765Z,69.50
2018-04-27T03:20:52.385Z,69.40
2018-04-27T03:23:20.015Z,69.40
2018-04-27T03:25:48.371Z,69.60
2018-04-27T03:28:15.985Z,69.60
2018-04-27T03:30:43.577Z,70.10
2018-04-27T03:33:11.185Z,70.10
2018-04-27T03:35:38.807Z,70.10
2018-04-27T03:38:06.430Z,70.50
2018-04-27T03:40:34.927Z,70.00
2018-04-27T03:43:02.517Z,70.10
2018-04-27T03:45:30.119Z,70.80
2018-04-27T03:47:57.716Z,70.90
2018-04-27T03:50:25.344Z,70.80
2018-04-27T03:52:52.942Z,70.70
2018-04-27T03:55:20.544Z,70.70
2018-04-27T03:57:48.912Z,70.60
2018-04-27T04:00:29.329Z,70.40
2018-04-27T04:03:08.708Z,70.40
2018-04-27T04:05:37.090Z,71.10
2018-04-27T04:08:05.473Z,70.70
2018-04-27T04:10:33.897Z,70.40
2018-04-27T04:13:01.507Z,70.20
2018-04-27T04:15:29.889Z,70.80
2018-04-27T04:17:58.236Z,71.10
2018-04-27T04:20:25.871Z,71.10
2018-04-27T04:22:53.483Z,71.30
2018-04-27T04:25:21.087Z,70.90
2018-04-27T04:27:48.745Z,70.90
2018-04-27T04:30:16.296Z,70.50
2018-04-27T04:32:43.858Z,70.20
2018-04-27T04:35:11.569Z,70.30
2018-04-27T04:37:39.201Z,70.20
2018-04-27T04:40:07.253Z,69.70
2018-04-27T04:42:34.873Z,69.50
2018-04-27T04:45:03.322Z,69.20
2018-04-27T04:47:30.837Z,69.20
2018-04-27T04:49:58.464Z,68.70
2018-04-27T04:52:26.173Z,68.90
2018-04-27T04:54:53.747Z,68.20
2018-04-27T04:57:21.549Z,67.70
2018-04-27T04:59:49.177Z,66.70
2018-04-27T05:02:16.773Z,63.60
2018-04-27T05:04:44.361Z,61.30
2018-04-27T05:07:12.688Z,60.50
2018-04-27T05:09:40.343Z,60.50
2018-04-27T05:12:08.057Z,60.40
2018-04-27T05:14:35.673Z,60.70
2018-04-27T05:17:03.280Z,61.40
2018-04-27T05:19:31.643Z,61.90
2018-04-27T05:21:59.264Z,61.80
2018-04-27T05:24:26.855Z,61.10
2018-04-27T05:26:54.457Z,57.70
2018-04-27T05:29:22.829Z,49.70
2018-04-27T05:31:50.437Z,49.70
2018-04-27T05:34:18.064Z,48.20
2018-04-27T05:36:45.756Z,46.50
2018-04-27T05:39:13.374Z,44.90
2018-04-27T05:41:41.773Z,42.00
2018-04-27T05:44:09.680Z,42.10
2018-04-27T05:46:37.341Z,37.80
2018-04-27T05:49:04.934Z,36.20
2018-04-27T05:51:32.476Z,35.40
2018-04-27T05:54:00.056Z,33.00
2018-04-27T05:56:28.486Z,30.70
2018-04-27T05:58:56.912Z,32.20
2018-04-27T06:01:25.255Z,33.20
2018-04-27T06:04:04.821Z,33.10
2018-04-27T06:06:33.488Z,31.90
2018-04-27T06:09:05.963Z,31.90
2018-04-27T06:11:33.613Z,31.80
2018-04-27T06:14:01.415Z,32.00
2018-04-27T06:16:29.395Z,31.60
2018-04-27T06:18:57.088Z,30.70
2018-04-27T06:21:31.233Z,31.30
2018-04-27T06:24:06.115Z,31.80
2018-04-27T06:26:33.731Z,33.00
2018-04-27T06:29:01.367Z,34.50
2018-04-27T06:31:28.977Z,35.90
2018-04-27T06:33:57.509Z,38.80
2018-04-27T06:36:25.179Z,38.90
2018-04-27T06:39:00.839Z,37.90
2018-04-27T06:41:28.631Z,37.80
2018-04-27T06:43:56.245Z,39.70
2018-04-27T06:46:23.875Z,39.50
2018-04-27T06:48:51.506Z,40.60
2018-04-27T06:51:19.112Z,41.40
2018-04-27T06:53:46.712Z,40.50
2018-04-27T06:56:14.379Z,41.10
2018-04-27T06:58:42.779Z,41.60
2018-04-27T07:01:11.147Z,41.00
2018-04-27T07:03:38.763Z,41.00
2018-04-27T07:06:06.321Z,39.90
2018-04-27T07:08:34.007Z,39.90
2018-04-27T07:11:01.705Z,38.40
2018-04-27T07:13:29.351Z,37.70
2018-04-27T07:15:56.927Z,38.10
2018-04-27T07:18:24.595Z,37.20
2018-04-27T07:20:52.941Z,37.80
2018-04-27T07:23:20.682Z,37.80
2018-04-27T07:25:48.400Z,37.70
2018-04-27T07:28:15.938Z,37.70
2018-04-27T07:30:51.452Z,36.40
2018-04-27T07:33:19.054Z,38.00
2018-04-27T07:35:46.678Z,36.50
2018-04-27T07:38:14.332Z,36.90
2018-04-27T07:40:41.963Z,37.00
2018-04-27T07:43:09.590Z,37.70
2018-04-27T07:45:38.016Z,35.70
2018-04-27T07:48:05.588Z,35.90
2018-04-27T07:50:33.163Z,36.50
2018-04-27T07:53:00.795Z,37.00
2018-04-27T07:55:28.477Z,36.90
2018-04-27T07:57:56.089Z,36.80
2018-04-27T08:00:23.697Z,36.90
2018-04-27T08:02:51.323Z,37.30
2018-04-27T08:05:18.939Z,38.70
2018-04-27T08:07:46.484Z,38.00
2018-04-27T08:10:14.085Z,34.30
2018-04-27T08:12:41.662Z,34.20
2018-04-27T08:15:10.093Z,32.00
2018-04-27T08:17:37.856Z,32.00
2018-04-27T08:20:05.519Z,34.80
2018-04-27T08:22:34.941Z,35.30
2018-04-27T08:25:02.535Z,32.00
2018-04-27T08:27:30.927Z,32.20
2018-04-27T08:30:01.747Z,32.20
2018-04-27T08:32:30.061Z,32.00
2018-04-27T08:34:57.683Z,31.90
2018-04-27T08:37:26.067Z,32.70
2018-04-27T08:39:53.666Z,32.70
2018-04-27T08:42:21.263Z,33.20
2018-04-27T08:44:48.873Z,31.10
2018-04-27T08:47:16.484Z,32.60
2018-04-27T08:49:44.097Z,32.30
2018-04-27T08:52:11.770Z,33.50
2018-04-27T08:54:39.452Z,32.40
2018-04-27T08:57:07.050Z,31.60
2018-04-27T08:59:35.424Z,31.00
2018-04-27T09:02:03.860Z,30.50
2018-04-27T09:04:31.437Z,30.40
2018-04-27T09:06:59.070Z,30.30
2018-04-27T09:09:26.710Z,32.30
2018-04-27T09:11:55.225Z,30.30
2018-04-27T09:14:22.789Z,30.10
2018-04-27T09:16:50.438Z,30.30
2018-04-27T09:19:18.047Z,30.90
2018-04-27T09:21:45.646Z,30.50
2018-04-27T09:24:13.265Z,30.60
2018-04-27T09:26:40.878Z,29.80
2018-04-27T09:29:08.494Z,30.00
2018-04-27T09:31:36.843Z,30.90
2018-04-27T09:34:04.664Z,30.80
2018-04-27T09:36:32.262Z,31.20
2018-04-27T09:39:00.093Z,31.10
2018-04-27T09:41:27.744Z,30.80
2018-04-27T09:43:55.348Z,30.00
2018-04-27T09:46:22.915Z,29.50
2018-04-27T09:48:50.534Z,30.00
2018-04-27T09:51:18.135Z,29.80
2018-04-27T09:53:45.740Z,31.00
2018-04-27T09:56:14.188Z,30.10
2018-04-27T09:58:41.777Z,30.10
2018-04-27T10:01:10.735Z,29.40
2018-04-27T10:03:38.297Z,29.40
2018-04-27T10:06:07.415Z,30.10
2018-04-27T10:08:36.098Z,30.40
2018-04-27T10:11:03.743Z,29.90
2018-04-27T10:13:31.379Z,31.00
2018-04-27T10:15:59.383Z,30.70
2018-04-27T10:18:27.979Z,30.80
2018-04-27T10:20:58.247Z,31.20
2018-04-27T10:23:25.925Z,31.10
2018-04-27T10:25:53.561Z,30.60
2018-04-27T10:28:21.233Z,31.60
2018-04-27T10:30:48.848Z,31.10
2018-04-27T10:33:16.522Z,29.80
2018-04-27T10:35:44.163Z,31.00
2018-04-27T10:38:12.627Z,31.70
2018-04-27T10:40:40.227Z,31.50
2018-04-27T10:43:07.997Z,30.00
2018-04-27T10:45:35.873Z,30.00
2018-04-27T10:48:03.519Z,30.60
2018-04-27T10:50:31.166Z,31.00
2018-04-27T10:52:59.544Z,31.30
2018-04-27T10:55:27.996Z,30.10
2018-04-27T10:57:55.635Z,30.00
2018-04-27T11:00:27.987Z,30.00
2018-04-27T11:02:55.672Z,30.50
2018-04-27T11:05:23.295Z,32.20
2018-04-27T11:07:52.139Z,31.40
2018-04-27T11:10:19.695Z,31.30
2018-04-27T11:12:47.348Z,30.60
2018-04-27T11:15:15.228Z,31.10
2018-04-27T11:17:42.873Z,30.70
2018-04-27T11:20:10.490Z,30.30
2018-04-27T11:22:38.899Z,30.00
2018-04-27T11:25:06.563Z,30.00
2018-04-27T11:27:34.145Z,30.60
2018-04-27T11:30:01.757Z,32.10
2018-04-27T11:32:30.131Z,29.70
2018-04-27T11:34:58.465Z,30.60
2018-04-27T11:37:26.093Z,30.60
2018-04-27T11:39:53.686Z,29.90
2018-04-27T11:42:21.365Z,30.00
2018-04-27T11:44:48.963Z,29.70
2018-04-27T11:47:16.637Z,29.20
2018-04-27T11:49:44.226Z,29.30
2018-04-27T11:52:11.845Z,29.50
2018-04-27T11:54:39.463Z,29.00
2018-04-27T11:57:07.089Z,28.20
2018-04-27T11:59:36.747Z,30.00
2018-04-27T12:02:04.352Z,30.20
2018-04-27T12:04:31.957Z,28.70
2018-04-27T12:07:07.253Z,27.00
2018-04-27T12:09:44.956Z,24.70
2018-04-27T12:12:16.513Z,23.20
2018-04-27T12:14:45.201Z,22.60
2018-04-27T12:17:12.849Z,22.50
2018-04-27T12:19:40.513Z,20.50
2018-04-27T12:22:08.181Z,20.60
2018-04-27T12:24:35.867Z,19.40
2018-04-27T12:27:03.499Z,20.60
2018-04-27T12:29:31.123Z,18.30
2018-04-27T12:31:58.784Z,18.40
2018-04-27T12:34:26.329Z,19.00
2018-04-27T12:36:53.949Z,18.90
2018-04-27T12:39:23.843Z,19.00
2018-04-27T12:41:52.779Z,18.60
2018-04-27T12:44:20.535Z,18.50
2018-04-27T12:46:56.392Z,18.80
2018-04-27T12:49:24.454Z,18.00
2018-04-27T12:51:52.866Z,17.40
2018-04-27T12:54:20.485Z,17.20
2018-04-27T12:56:51.879Z,17.10
2018-04-27T12:59:22.442Z,17.50
2018-04-27T13:01:51.011Z,18.90
2018-04-27T13:04:18.611Z,18.80
2018-04-27T13:06:46.246Z,17.90
2018-04-27T13:09:13.975Z,17.30
2018-04-27T13:11:42.532Z,17.80
2018-04-27T13:14:10.127Z,17.70
2018-04-27T13:16:37.698Z,19.10
2018-04-27T13:19:05.318Z,17.60
2018-04-27T13:21:34.061Z,18.50
2018-04-27T13:24:01.702Z,18.60
2018-04-27T13:26:29.713Z,18.70
2018-04-27T13:28:59.412Z,21.50
2018-04-27T13:31:27.030Z,21.40
2018-04-27T13:33:54.666Z,22.00
2018-04-27T13:36:22.386Z,23.80
2018-04-27T13:38:50.034Z,21.30
2018-04-27T13:41:17.705Z,21.90
2018-04-27T13:43:46.066Z,22.50
2018-04-27T13:46:13.664Z,22.40
2018-04-27T13:48:41.255Z,22.60
2018-04-27T13:51:08.853Z,22.00
2018-04-27T13:53:37.180Z,22.70
2018-04-27T13:56:05.046Z,22.10
2018-04-27T13:58:39.585Z,23.00
2018-04-27T14:01:07.220Z,23.10
2018-04-27T14:03:34.862Z,21.50
2018-04-27T14:06:02.527Z,22.00
2018-04-27T14:08:31.051Z,22.40
2018-04-27T14:10:59.664Z,22.50
2018-04-27T14:13:27.563Z,22.30
2018-04-27T14:15:55.943Z,20.00
2018-04-27T14:18:48.564Z,20.00
2018-04-27T14:21:16.244Z,20.60
2018-04-27T14:23:44.656Z,21.90
2018-04-27T14:26:12.292Z,21.90
2018-04-27T14:28:40.648Z,22.70
2018-04-27T14:31:08.986Z,21.10
2018-04-27T14:33:36.632Z,21.10
2018-04-27T14:36:09.962Z,21.50
2018-04-27T14:38:37.566Z,21.30
2018-04-27T14:41:05.162Z,20.20
2018-04-27T14:43:32.752Z,21.60
2018-04-27T14:46:00.346Z,20.30
2018-04-27T14:48:28.229Z,20.90
2018-04-27T14:50:55.992Z,20.60
2018-04-27T14:53:24.698Z,20.70
2018-04-27T14:56:02.316Z,20.70
2018-04-27T14:58:29.902Z,21.80
2018-04-27T15:00:57.519Z,21.50
2018-04-27T15:03:31.808Z,21.40
2018-04-27T15:06:01.309Z,21.10
2018-04-27T15:08:29.672Z,22.20
2018-04-27T15:10:58.305Z,22.30
2018-04-27T15:13:26.313Z,21.70
2018-04-27T15:15:54.144Z,22.20
2018-04-27T15:18:21.864Z,21.90
2018-04-27T15:20:49.500Z,21.00
2018-04-27T15:23:18.016Z,21.20
2018-04-27T15:25:47.405Z,21.20
2018-04-27T15:28:19.032Z,21.10
2018-04-27T15:30:46.588Z,21.80
2018-04-27T15:33:14.193Z,23.20
2018-04-27T15:35:42.571Z,23.80
2018-04-27T15:38:11.020Z,23.40
2018-04-27T15:40:38.631Z,23.40
2018-04-27T15:43:06.269Z,23.90
2018-04-27T15:45:33.877Z,23.90
2018-04-27T15:48:01.530Z,24.50
2018-04-27T15:50:29.215Z,25.20
2018-04-27T15:52:56.899Z,25.10
2018-04-27T15:55:25.709Z,25.40
2018-04-27T15:57:54.095Z,25.00
2018-04-27T16:00:22.582Z,24.40
2018-04-27T16:02:50.963Z,24.70
2018-04-27T16:05:19.343Z,24.60
2018-04-27T16:07:47.725Z,25.40
2018-04-27T16:10:16.248Z,25.00
2018-04-27T16:12:43.826Z,25.00
2018-04-27T16:15:12.314Z,25.90
2018-04-27T16:17:40.048Z,26.50
2018-04-27T16:20:07.732Z,26.60
2018-04-27T16:22:35.469Z,27.40
2018-04-27T16:25:03.850Z,28.10
2018-04-27T16:27:31.659Z,28.10
2018-04-27T16:29:59.456Z,28.10
2018-04-27T16:32:27.060Z,28.90
2018-04-27T16:34:54.666Z,29.50
2018-04-27T16:37:23.072Z,29.90
2018-04-27T16:39:50.684Z,29.50
2018-04-27T16:42:18.346Z,29.80
2018-04-27T16:44:46.746Z,30.50
2018-04-27T16:47:15.128Z,31.20
2018-04-27T16:49:42.776Z,31.00
2018-04-27T16:52:11.161Z,31.00
2018-04-27T16:54:39.554Z,31.30
2018-04-27T16:57:07.918Z,31.20
2018-04-27T16:59:36.316Z,32.80
2018-04-27T17:02:04.862Z,32.70
2018-04-27T17:04:32.628Z,32.00
2018-04-27T17:07:00.666Z,31.70
2018-04-27T17:09:28.335Z,32.30
2018-04-27T17:11:57.124Z,32.60
2018-04-27T17:14:24.773Z,32.50
2018-04-27T17:16:52.477Z,33.00
2018-04-27T17:19:20.248Z,32.50
2018-04-27T17:21:49.398Z,32.70
2018-04-27T17:24:17.147Z,33.00
2018-04-27T17:26:44.784Z,33.30
2018-04-27T17:29:12.354Z,33.40
2018-04-27T17:31:39.932Z,34.00
2018-04-27T17:34:07.674Z,33.80
2018-04-27T17:36:35.284Z,34.50
2018-04-27T17:39:02.913Z,34.80
2018-04-27T17:41:30.551Z,34.90
2018-04-27T17:43:58.273Z,35.00
2018-04-27T17:46:25.914Z,35.40
2018-04-27T17:48:53.563Z,35.90
2018-04-27T17:51:21.135Z,36.00
2018-04-27T17:53:49.000Z,36.10
2018-04-27T17:56:16.606Z,36.50
2018-04-27T17:59:03.419Z,36.70
2018-04-27T18:01:31.178Z,37.00
2018-04-27T18:03:59.675Z,37.60
2018-04-27T18:06:30.839Z,37.50
2018-04-27T18:08:58.493Z,37.70
2018-04-27T18:11:26.332Z,38.10
2018-04-27T18:13:53.926Z,38.50
2018-04-27T18:16:21.623Z,39.10
2018-04-27T18:18:49.249Z,39.00
2018-04-27T18:21:20.521Z,39.40
2018-04-27T18:23:48.117Z,39.50
2018-04-27T18:26:19.425Z,39.80
2018-04-27T18:28:47.324Z,40.10
2018-04-27T18:31:15.637Z,39.90
2018-04-27T18:33:43.237Z,40.20
2018-04-27T18:36:11.771Z,40.90
2018-04-27T18:38:45.805Z,40.80
2018-04-27T18:41:13.908Z,40.80
2018-04-27T18:43:42.602Z,41.10
2018-04-27T18:46:10.990Z,41.30
2018-04-27T18:48:38.579Z,41.30
2018-04-27T18:51:06.943Z,41.50
2018-04-27T18:53:35.814Z,42.10
2018-04-27T18:56:07.179Z,42.20
2018-04-27T19:01:35.275Z,43.20
2018-04-27T19:04:02.873Z,43.20
2018-04-27T19:06:30.484Z,43.20
2018-04-27T19:08:58.111Z,43.30
2018-04-27T19:11:27.638Z,44.60
2018-04-27T19:13:55.325Z,44.60
2018-04-27T19:16:23.693Z,44.80
2018-04-27T19:18:56.341Z,44.70
2018-04-27T19:21:24.005Z,45.00
2018-04-27T19:23:51.597Z,44.90
2018-04-27T19:26:19.161Z,45.20
2018-04-27T19:28:46.787Z,45.90
2018-04-27T19:31:14.359Z,45.90
2018-04-27T19:33:42.024Z,46.40
2018-04-27T19:36:09.625Z,46.30
2018-04-27T19:38:38.010Z,46.70
2018-04-27T19:41:06.391Z,47.00
2018-04-27T19:43:34.022Z,47.00
2018-04-27T19:46:01.656Z,47.10
2018-04-27T19:48:29.234Z,47.40
2018-04-27T19:50:56.839Z,47.80
2018-04-27T19:53:24.421Z,47.70
2018-04-27T19:56:09.481Z,48.00
2018-04-27T19:58:37.181Z,48.40
2018-04-27T20:01:04.786Z,48.60
2018-04-27T20:03:33.124Z,48.90
2018-04-27T20:06:00.760Z,48.90
2018-04-27T20:08:28.365Z,49.30
2018-04-27T20:10:56.415Z,49.60
2018-04-27T20:13:24.179Z,49.50
2018-04-27T20:15:55.306Z,49.50
2018-04-27T20:18:28.099Z,50.70
2018-04-27T20:20:59.375Z,50.20
2018-04-27T20:23:31.228Z,50.20
2018-04-27T20:26:00.456Z,50.10
2018-04-27T20:28:30.895Z,50.10
2018-04-27T20:30:58.477Z,50.20
2018-04-27T20:33:26.158Z,50.20
2018-04-27T20:36:02.978Z,50.40
2018-04-27T20:38:38.280Z,50.60
2018-04-27T20:41:06.700Z,50.90
2018-04-27T20:43:35.098Z,51.20
2018-04-27T20:46:02.885Z,51.00
2018-04-27T20:48:30.502Z,51.40
2018-04-27T20:50:59.690Z,51.60
2018-04-27T20:53:29.030Z,51.70
2018-04-27T20:55:59.208Z,51.70
2018-04-27T20:58:26.808Z,51.50
2018-04-27T21:00:54.428Z,51.60
2018-04-27T21:03:22.157Z,51.70
2018-04-27T21:05:49.820Z,51.80
2018-04-27T21:08:17.474Z,51.70
2018-04-27T21:10:45.078Z,51.70
2018-04-27T21:13:13.452Z,52.20
2018-04-27T21:15:41.857Z,52.60
2018-04-27T21:18:09.487Z,52.60
2018-04-27T21:20:37.072Z,52.60
2018-04-27T21:23:08.219Z,52.80
2018-04-27T21:25:37.494Z,53.00
2018-04-27T21:28:06.004Z,53.00
2018-04-27T21:30:33.807Z,53.50
2018-04-27T21:33:04.301Z,53.50
2018-04-27T21:35:38.655Z,53.50
2018-04-27T21:38:15.112Z,54.00
2018-04-27T21:40:42.730Z,53.80
2018-04-27T21:43:11.100Z,54.00
2018-04-27T21:45:38.700Z,54.00
2018-04-27T21:48:06.437Z,54.00
2018-04-27T21:50:34.811Z,54.20
2018-04-27T21:53:03.198Z,54.20
2018-04-27T21:55:31.573Z,54.30
2018-04-27T21:58:01.742Z,54.30
2018-04-27T22:00:30.176Z,54.30
2018-04-27T22:02:59.275Z,54.40
2018-04-27T22:05:29.832Z,54.40
2018-04-27T22:07:57.448Z,54.40
2018-04-27T22:10:25.069Z,55.30
2018-04-27T22:12:52.692Z,54.60
2018-04-27T22:15:21.058Z,55.00
2018-04-27T22:17:49.475Z,55.30
2018-04-27T22:20:18.076Z,55.20
2018-04-27T22:22:45.663Z,55.30
2018-04-27T22:25:18.972Z,55.70
2018-04-27T22:27:48.274Z,56.40
2018-04-27T22:30:37.547Z,56.00
2018-04-27T22:36:35.423Z,56.30
2018-04-27T22:42:15.546Z,56.70
2018-04-27T22:45:17.441Z,56.80
2018-04-27T22:47:46.916Z,56.90
2018-04-27T22:50:26.264Z,56.80
2018-04-27T22:52:54.758Z,57.20
2018-04-27T22:55:22.304Z,57.20
2018-04-27T22:58:01.666Z,57.40
2018-04-27T23:00:29.201Z,57.50
2018-04-27T23:02:56.752Z,57.60
2018-04-27T23:05:27.955Z,57.60
2018-04-27T23:08:00.092Z,57.90
2018-04-27T23:10:33.584Z,58.10
2018-04-27T23:13:02.998Z,58.10
2018-04-27T23:15:42.393Z,58.50
2018-04-27T23:18:21.496Z,58.40
2018-04-27T23:20:56.513Z,58.40
2018-04-27T23:23:24.028Z,58.40
2018-04-27T23:25:51.550Z,58.50
2018-04-27T23:28:19.886Z,58.80
2018-04-27T23:30:47.430Z,58.80
2018-04-27T23:33:14.990Z,59.00
2018-04-27T23:35:44.345Z,58.80
2018-04-27T23:38:12.632Z,59.50
2018-04-27T23:40:43.786Z,59.80
2018-04-27T23:43:12.236Z,59.70
2018-04-27T23:45:39.752Z,60.30
2018-04-27T23:48:07.279Z,59.90
2018-04-27T23:50:34.796Z,60.10
2018-04-27T23:53:02.306Z,60.00
2018-04-27T23:55:29.830Z,60.60
2018-04-27T23:57:58.130Z,61.30
